createdAt,value
2022-09-05T00:01:57.507Z,99634.34
2022-09-05T00:04:38.485Z,99631.34
2022-09-05T00:07:41.236Z,99630.78
2022-09-05T00:10:24.197Z,99628.34
2022-09-05T00:13:07.004Z,99635.31
2022-09-05T00:15:52.369Z,99629.38
2022-09-05T00:24:19.456Z,99621.72
2022-09-05T00:24:31.665Z,99623.16
2022-09-05T00:25:39.733Z,99622.38
2022-09-05T00:28:32.062Z,99622.34
2022-09-05T00:31:54.250Z,99624.16
2022-09-05T00:34:50.939Z,99620.03
2022-09-05T00:37:34.989Z,99621.59
2022-09-05T00:40:28.137Z,99625.88
2022-09-05T00:43:03.363Z,99625.59
2022-09-05T00:45:44.239Z,99623.91
2022-09-05T00:48:30.437Z,99624.44
2022-09-05T00:51:14.210Z,99620.13
2022-09-05T00:53:58.121Z,99618.16
2022-09-05T00:56:55.409Z,99618.72
2022-09-05T01:00:01.934Z,99624.63
2022-09-05T01:02:55.277Z,99621.03
2022-09-05T01:05:43.398Z,99619.63
2022-09-05T01:08:41.324Z,99639.69
2022-09-05T01:11:21.258Z,99629.59
2022-09-05T01:14:07.811Z,99625.81
2022-09-05T01:17:20.909Z,99628.69
2022-09-05T01:20:19.032Z,99623.84
2022-09-05T01:23:38.239Z,99630.25
2022-09-05T01:26:54.392Z,99631.59
2022-09-05T01:29:34.711Z,99634.22
2022-09-05T01:32:25.198Z,99634.22
2022-09-05T01:35:25.863Z,99636.03
2022-09-05T01:38:06.810Z,99630.03
2022-09-05T01:41:17.662Z,99633.81
2022-09-05T01:44:06.527Z,99630.00
2022-09-05T01:46:51.788Z,99631.13
2022-09-05T01:49:38.744Z,99630.47
2022-09-05T01:52:30.377Z,99633.25
2022-09-05T01:55:26.938Z,99637.84
2022-09-05T01:58:10.253Z,99635.88
2022-09-05T02:00:51.878Z,99639.56
2022-09-05T02:03:38.523Z,99643.34
2022-09-05T02:06:40.063Z,99640.09
2022-09-05T02:09:49.353Z,99638.44
2022-09-05T02:12:33.971Z,99643.25
2022-09-05T02:15:14.724Z,99638.38
2022-09-05T02:17:53.006Z,99636.25
2022-09-05T02:20:33.190Z,99633.38
2022-09-05T02:23:40.244Z,99636.56
2022-09-05T02:26:08.729Z,99630.31
2022-09-05T02:28:51.542Z,99628.88
2022-09-05T02:31:29.076Z,99629.88
2022-09-05T02:34:08.358Z,99636.00
2022-09-05T02:36:47.125Z,99630.38
2022-09-05T02:45:03.448Z,99639.50
2022-09-05T02:45:14.647Z,99640.28
2022-09-05T02:45:38.951Z,99632.91
2022-09-05T02:48:28.912Z,99635.94
2022-09-05T02:55:50.676Z,99639.03
2022-09-05T02:58:04.530Z,99629.56
2022-09-05T02:58:07.555Z,99633.00
2022-09-05T03:00:34.598Z,99637.56
2022-09-05T03:03:24.578Z,99639.22
2022-09-05T03:06:02.490Z,99631.94
2022-09-05T03:09:09.874Z,99630.22
2022-09-05T03:12:35.783Z,99624.81
2022-09-05T03:15:56.349Z,99625.09
2022-09-05T03:19:05.251Z,99621.31
2022-09-05T03:22:24.575Z,99617.81
2022-09-05T03:25:52.428Z,99617.25
2022-09-05T03:29:14.578Z,99619.44
2022-09-05T03:32:20.055Z,99622.03
2022-09-05T03:35:39.088Z,99631.84
2022-09-05T03:39:07.488Z,99628.13
2022-09-05T03:42:04.327Z,99639.72
2022-09-05T03:45:12.159Z,99634.63
2022-09-05T03:48:28.420Z,99626.28
2022-09-05T03:57:05.817Z,99627.13
2022-09-05T03:57:12.481Z,99621.22
2022-09-05T03:58:56.088Z,99628.25
2022-09-05T04:04:49.905Z,99624.56
2022-09-05T04:08:07.159Z,99627.78
2022-09-05T04:08:23.961Z,99630.94
2022-09-05T04:10:35.233Z,99628.75
2022-09-05T04:13:15.903Z,99630.38
2022-09-05T04:15:54.630Z,99631.13
2022-09-05T04:18:35.828Z,99632.66
2022-09-05T04:21:14.122Z,99624.81
2022-09-05T04:24:02.529Z,99624.91
2022-09-05T04:26:58.302Z,99626.97
2022-09-05T04:29:44.184Z,99632.81
2022-09-05T04:32:30.236Z,99630.63
2022-09-05T04:35:24.271Z,99633.34
2022-09-05T04:37:59.627Z,99639.28
2022-09-05T04:41:00.399Z,99637.75
2022-09-05T04:43:41.626Z,99633.91
2022-09-05T04:46:23.201Z,99640.91
2022-09-05T04:49:03.470Z,99637.91
2022-09-05T04:52:23.615Z,99647.53
2022-09-05T04:55:09.791Z,99650.16
2022-09-05T04:57:49.310Z,99641.50
2022-09-05T05:05:42.097Z,99650.63
2022-09-05T05:06:20.300Z,99643.59
2022-09-05T05:06:43.823Z,99646.63
2022-09-05T05:09:26.262Z,99649.06
2022-09-05T05:17:53.955Z,99650.50
2022-09-05T05:18:08.471Z,99641.84
2022-09-05T05:18:39.447Z,99649.91
2022-09-05T05:20:57.107Z,99650.78
2022-09-05T05:23:38.970Z,99651.13
2022-09-05T05:26:14.511Z,99652.50
2022-09-05T05:28:57.391Z,99652.19
2022-09-05T05:31:31.155Z,99660.28
2022-09-05T05:34:12.984Z,99656.53
2022-09-05T05:37:03.801Z,99655.56
2022-09-05T05:39:39.960Z,99657.78
2022-09-05T05:42:20.735Z,99662.75
2022-09-05T05:44:54.701Z,99657.19
2022-09-05T05:47:31.736Z,99664.28
2022-09-05T05:50:11.944Z,99663.22
2022-09-05T05:53:07.109Z,99660.09
2022-09-05T05:56:09.762Z,99663.22
2022-09-05T05:59:24.910Z,99665.19
2022-09-05T06:03:25.554Z,99663.41
2022-09-05T06:06:21.955Z,99661.38
2022-09-05T06:14:54.959Z,99653.34
2022-09-05T06:14:56.699Z,99663.72
2022-09-05T06:17:28.813Z,99664.91
2022-09-05T06:22:09.936Z,99665.53
2022-09-05T06:24:53.800Z,99662.44
2022-09-05T06:28:19.309Z,99672.25
2022-09-05T06:31:27.593Z,99669.09
2022-09-05T06:34:32.967Z,99664.31
2022-09-05T06:37:20.741Z,99664.94
2022-09-05T06:40:09.116Z,99667.19
2022-09-05T06:43:03.682Z,99669.44
2022-09-05T06:46:02.933Z,99665.44
2022-09-05T06:48:45.607Z,99666.59
2022-09-05T06:52:28.531Z,99653.44
2022-09-05T06:55:47.313Z,99655.13
2022-09-05T06:59:06.578Z,99663.91
2022-09-05T07:02:00.761Z,99669.97
2022-09-05T07:05:37.563Z,99667.69
2022-09-05T07:07:46.046Z,99670.22
2022-09-05T07:10:41.872Z,99672.72
2022-09-05T07:13:21.694Z,99666.56
2022-09-05T07:16:00.352Z,99667.69
2022-09-05T07:18:43.784Z,99669.88
2022-09-05T07:21:26.545Z,99665.34
2022-09-05T07:24:10.198Z,99667.31
2022-09-05T07:26:54.758Z,99662.50
2022-09-05T07:29:31.285Z,99664.72
2022-09-05T07:32:05.774Z,99666.94
2022-09-05T07:34:38.351Z,99668.63
2022-09-05T07:37:17.482Z,99659.44
2022-09-05T07:39:54.840Z,99667.84
2022-09-05T07:42:31.589Z,99666.25
2022-09-05T07:45:11.692Z,99668.72
2022-09-05T07:47:50.009Z,99667.38
2022-09-05T07:52:55.835Z,99670.34
2022-09-05T07:57:00.799Z,99663.84
2022-09-05T07:57:03.161Z,99666.31
2022-09-05T07:58:55.628Z,99661.94
2022-09-05T08:01:26.584Z,99660.56
2022-09-05T08:03:57.341Z,99651.91
2022-09-05T08:07:36.316Z,99654.31
2022-09-05T08:10:08.154Z,99656.75
2022-09-05T08:12:28.577Z,99656.97
2022-09-05T08:15:10.252Z,99649.31
2022-09-05T08:18:08.714Z,99658.81
2022-09-05T08:20:47.082Z,99658.78
2022-09-05T08:23:43.852Z,99658.16
2022-09-05T08:26:17.404Z,99655.91
2022-09-05T08:29:04.553Z,99660.72
2022-09-05T08:31:41.879Z,99657.63
2022-09-05T08:34:31.427Z,99656.75
2022-09-05T08:37:21.425Z,99651.72
2022-09-05T08:40:09.975Z,99649.75
2022-09-05T08:43:30.894Z,99642.84
2022-09-05T08:46:47.281Z,99642.22
2022-09-05T08:49:16.258Z,99637.72
2022-09-05T08:52:10.735Z,99636.75
2022-09-05T08:55:05.740Z,99637.09
2022-09-05T08:58:23.576Z,99634.03
2022-09-05T09:01:05.036Z,99624.31
2022-09-05T09:03:53.569Z,99626.88
2022-09-05T09:07:26.235Z,99625.97
2022-09-05T09:09:54.837Z,99625.38
2022-09-05T09:13:05.028Z,99620.16
2022-09-05T09:15:41.564Z,99620.66
2022-09-05T09:18:17.367Z,99609.31
2022-09-05T09:20:55.867Z,99623.13
2022-09-05T09:23:49.521Z,99619.50
2022-09-05T09:26:24.630Z,99621.56
2022-09-05T09:29:07.063Z,99618.72
2022-09-05T09:31:57.645Z,99618.13
2022-09-05T09:34:56.263Z,99620.78
2022-09-05T09:38:07.012Z,99616.47
2022-09-05T09:41:28.273Z,99610.63
2022-09-05T09:44:53.532Z,99607.84
2022-09-05T09:47:50.883Z,99597.44
2022-09-05T09:50:49.179Z,99601.78
2022-09-05T09:53:51.116Z,99596.53
2022-09-05T09:57:12.709Z,99605.56
2022-09-05T10:00:09.697Z,99594.97
2022-09-05T10:10:33.715Z,99595.19
2022-09-05T10:10:52.404Z,99583.78
2022-09-05T10:11:17.888Z,99590.41
2022-09-05T10:13:34.923Z,99589.13
2022-09-05T10:16:54.041Z,99588.16
2022-09-05T10:20:20.741Z,99575.56
2022-09-05T10:24:00.427Z,99574.88
2022-09-05T10:27:06.732Z,99565.72
2022-09-05T10:30:07.833Z,99565.50
2022-09-05T10:35:15.022Z,99568.09
2022-09-05T10:36:06.232Z,99564.88
2022-09-05T10:38:44.332Z,99570.88
2022-09-05T10:41:21.295Z,99569.53
2022-09-05T10:44:02.163Z,99564.59
2022-09-05T10:46:53.641Z,99560.97
2022-09-05T10:49:30.159Z,99564.28
2022-09-05T10:52:18.685Z,99560.31
2022-09-05T10:55:22.075Z,99563.19
2022-09-05T10:58:06.326Z,99557.91
2022-09-05T11:02:23.868Z,99559.59
2022-09-05T11:03:56.746Z,99564.34
2022-09-05T11:06:53.495Z,99564.56
2022-09-05T11:09:40.870Z,99563.16
2022-09-05T11:12:39.138Z,99568.91
2022-09-05T11:15:25.208Z,99571.03
2022-09-05T11:18:03.901Z,99567.38
2022-09-05T11:21:00.597Z,99570.63
2022-09-05T11:23:38.746Z,99567.47
2022-09-05T11:26:26.029Z,99569.22
2022-09-05T11:29:05.849Z,99572.88
2022-09-05T11:34:48.722Z,99575.69
2022-09-05T11:40:01.995Z,99580.03
2022-09-05T11:40:10.547Z,99573.38
2022-09-05T11:42:26.126Z,99575.56
2022-09-05T11:45:41.328Z,99584.47
2022-09-05T11:49:21.055Z,99580.19
2022-09-05T11:52:52.974Z,99576.75
2022-09-05T11:56:08.914Z,99571.09
2022-09-05T11:59:32.773Z,99568.44
2022-09-05T12:02:37.742Z,99566.91
2022-09-05T12:06:03.436Z,99565.38
2022-09-05T12:08:40.872Z,99559.53
2022-09-05T12:11:39.523Z,99562.66
2022-09-05T12:14:42.433Z,99564.06
2022-09-05T12:17:35.396Z,99549.00
2022-09-05T12:20:16.755Z,99556.31
2022-09-05T12:22:58.157Z,99547.03
2022-09-05T12:27:40.624Z,99548.84
2022-09-05T12:29:28.142Z,99544.13
2022-09-05T12:32:32.224Z,99549.22
2022-09-05T12:36:04.977Z,99535.66
2022-09-05T12:40:45.050Z,99535.25
2022-09-05T12:41:39.186Z,99538.94
2022-09-05T12:44:39.285Z,99539.53
2022-09-05T12:46:45.795Z,99534.69
2022-09-05T12:49:36.059Z,99532.22
2022-09-05T12:52:12.269Z,99528.19
2022-09-05T12:54:55.870Z,99529.63
2022-09-05T13:00:05.611Z,99532.47
2022-09-05T13:03:04.348Z,99528.00
2022-09-05T13:03:29.731Z,99526.41
2022-09-05T13:06:17.129Z,99533.47
2022-09-05T13:09:07.072Z,99535.72
2022-09-05T13:14:50.101Z,99530.25
2022-09-05T13:15:14.186Z,99527.31
2022-09-05T13:17:54.365Z,99531.47
2022-09-05T13:20:32.601Z,99532.59
2022-09-05T13:23:13.863Z,99529.06
2022-09-05T13:25:50.640Z,99526.91
2022-09-05T13:28:23.357Z,99527.22
2022-09-05T13:38:00.489Z,99523.38
2022-09-05T13:38:01.631Z,99522.75
2022-09-05T13:38:30.394Z,99534.81
2022-09-05T13:39:56.176Z,99525.38
2022-09-05T13:42:31.718Z,99525.19
2022-09-05T13:45:02.965Z,99524.13
2022-09-05T13:47:53.954Z,99517.13
2022-09-05T13:50:28.699Z,99506.66
2022-09-05T13:53:15.234Z,99507.13
2022-09-05T13:55:54.873Z,99503.13
2022-09-05T13:58:51.040Z,99499.97
2022-09-05T14:02:19.903Z,99496.47
2022-09-05T14:05:20.888Z,99489.47
2022-09-05T14:08:40.284Z,99490.16
2022-09-05T14:11:55.419Z,99482.91
2022-09-05T14:17:54.164Z,99477.75
2022-09-05T14:20:49.605Z,99474.22
2022-09-05T14:23:24.452Z,99486.56
2022-09-05T14:26:00.049Z,99472.19
2022-09-05T14:28:37.393Z,99479.69
2022-09-05T14:37:26.121Z,99488.72
2022-09-05T14:37:52.007Z,99480.44
2022-09-05T14:38:09.164Z,99481.44
2022-09-05T14:41:36.505Z,99474.34
2022-09-05T14:44:44.332Z,99472.78
2022-09-05T14:47:47.474Z,99478.16
2022-09-05T14:51:05.902Z,99474.81
2022-09-05T15:00:25.551Z,99475.56
2022-09-05T15:02:43.095Z,99471.13
2022-09-05T15:03:00.627Z,99462.69
2022-09-05T15:05:36.052Z,99461.97
2022-09-05T15:08:14.884Z,99466.88
2022-09-05T15:12:18.561Z,99451.47
2022-09-05T15:14:03.856Z,99461.25
2022-09-05T15:16:40.520Z,99451.88
2022-09-05T15:19:11.841Z,99456.50
2022-09-05T15:21:41.678Z,99449.84
2022-09-05T15:24:21.496Z,99448.22
2022-09-05T15:26:54.006Z,99448.22
2022-09-05T15:29:26.354Z,99453.16
2022-09-05T15:32:15.846Z,99456.81
2022-09-05T15:34:45.086Z,99458.25
2022-09-05T15:37:30.651Z,99457.94
2022-09-05T15:40:23.071Z,99457.44
2022-09-05T15:42:59.017Z,99458.84
2022-09-05T15:45:33.137Z,99463.94
2022-09-05T15:48:18.321Z,99462.78
2022-09-05T15:50:51.647Z,99466.50
2022-09-05T15:53:29.208Z,99474.72
2022-09-05T15:56:18.862Z,99476.75
2022-09-05T15:58:55.107Z,99477.81
2022-09-05T16:01:59.120Z,99486.53
2022-09-05T16:06:12.679Z,99483.91
2022-09-05T16:10:35.548Z,99486.72
2022-09-05T16:11:11.774Z,99486.72
2022-09-05T16:13:46.306Z,99493.00
2022-09-05T16:23:17.986Z,99486.56
2022-09-05T16:23:27.781Z,99488.75
2022-09-05T16:23:29.701Z,99490.19
2022-09-05T16:25:05.643Z,99488.56
2022-09-05T16:27:54.476Z,99491.19
2022-09-05T16:30:31.277Z,99483.09
2022-09-05T16:33:08.098Z,99484.09
2022-09-05T16:35:46.215Z,99483.88
2022-09-05T16:38:43.744Z,99481.97
2022-09-05T16:41:28.586Z,99477.63
2022-09-05T16:44:11.488Z,99465.88
2022-09-05T16:46:48.836Z,99462.66
2022-09-05T16:49:29.686Z,99464.16
2022-09-05T16:52:17.134Z,99461.41
2022-09-05T16:54:55.545Z,99477.63
2022-09-05T16:57:30.166Z,99465.56
2022-09-05T16:59:59.866Z,99469.91
2022-09-05T17:02:35.186Z,99473.78
2022-09-05T17:05:14.556Z,99473.38
2022-09-05T17:08:05.346Z,99466.56
2022-09-05T17:10:52.934Z,99465.03
2022-09-05T17:13:46.721Z,99466.69
2022-09-05T17:16:28.771Z,99468.69
2022-09-05T17:19:01.655Z,99460.22
2022-09-05T17:22:55.386Z,99460.28
2022-09-05T17:29:20.447Z,99461.41
2022-09-05T17:29:26.607Z,99468.66
2022-09-05T17:33:03.908Z,99470.97
2022-09-05T17:35:59.913Z,99477.53
2022-09-05T17:39:04.320Z,99468.88
2022-09-05T17:41:56.368Z,99467.59
2022-09-05T17:44:33.349Z,99473.38
2022-09-05T17:47:15.315Z,99479.19
2022-09-05T17:49:47.129Z,99475.94
2022-09-05T17:52:25.048Z,99479.88
2022-09-05T17:54:57.514Z,99478.84
2022-09-05T17:57:42.381Z,99479.44
2022-09-05T18:01:07.836Z,99483.88
2022-09-05T18:04:16.458Z,99489.91
2022-09-05T18:07:00.615Z,99496.75
2022-09-05T18:10:14.569Z,99496.53
2022-09-05T18:13:12.415Z,99496.34
2022-09-05T18:16:13.237Z,99492.06
2022-09-05T18:19:33.205Z,99492.13
2022-09-05T18:21:53.151Z,99497.16
2022-09-05T18:24:35.238Z,99499.63
2022-09-05T18:28:03.125Z,99508.13
2022-09-05T18:33:54.010Z,99502.22
2022-09-05T18:36:53.023Z,99501.19
2022-09-05T18:40:16.555Z,99503.16
2022-09-05T18:43:15.495Z,99507.84
2022-09-05T18:45:53.048Z,99501.38
2022-09-05T18:48:33.455Z,99505.25
2022-09-05T18:51:13.343Z,99499.56
2022-09-05T18:53:48.731Z,99505.88
2022-09-05T18:57:09.722Z,99497.78
2022-09-05T18:59:37.091Z,99497.03
2022-09-05T19:02:26.905Z,99491.38
2022-09-05T19:05:28.578Z,99497.16
2022-09-05T19:08:03.849Z,99492.06
2022-09-05T19:10:36.867Z,99498.66
2022-09-05T19:13:15.623Z,99501.94
2022-09-05T19:16:18.174Z,99496.56
2022-09-05T19:19:16.154Z,99494.38
2022-09-05T19:22:07.075Z,99490.66
2022-09-05T19:24:46.237Z,99488.53
2022-09-05T19:27:35.930Z,99486.34
2022-09-05T19:36:45.641Z,99486.41
2022-09-05T19:37:02.251Z,99489.72
2022-09-05T19:37:09.793Z,99485.94
2022-09-05T19:40:07.763Z,99486.00
2022-09-05T19:47:33.736Z,99482.25
2022-09-05T19:47:50.727Z,99481.78
2022-09-05T19:50:29.360Z,99474.53
2022-09-05T19:53:07.775Z,99481.38
2022-09-05T19:55:40.105Z,99479.78
2022-09-05T19:58:19.861Z,99472.47
2022-09-05T20:01:02.456Z,99478.75
2022-09-05T20:03:39.557Z,99475.00
2022-09-05T20:06:28.725Z,99474.16
2022-09-05T20:09:17.821Z,99470.41
2022-09-05T20:11:53.632Z,99471.22
2022-09-05T20:14:26.965Z,99463.63
2022-09-05T20:17:01.527Z,99464.72
2022-09-05T20:19:34.725Z,99465.03
2022-09-05T20:22:47.325Z,99463.75
2022-09-05T20:25:19.882Z,99474.09
2022-09-05T20:28:09.858Z,99477.88
2022-09-05T20:30:48.320Z,99475.72
2022-09-05T20:33:23.118Z,99463.47
2022-09-05T20:40:04.000Z,99485.78
2022-09-05T20:43:21.751Z,99485.00
2022-09-05T20:43:32.214Z,99475.22
2022-09-05T20:44:50.656Z,99464.34
2022-09-05T20:50:30.702Z,99461.66
2022-09-05T20:54:14.768Z,99469.34
2022-09-05T20:54:28.946Z,99471.28
2022-09-05T20:56:22.833Z,99468.56
2022-09-05T20:58:55.733Z,99468.84
2022-09-05T21:01:27.800Z,99471.31
2022-09-05T21:03:59.579Z,99467.28
2022-09-05T21:06:33.695Z,99464.28
2022-09-05T21:09:24.707Z,99459.16
2022-09-05T21:11:55.858Z,99462.97
2022-09-05T21:14:29.664Z,99469.53
2022-09-05T21:17:13.381Z,99469.81
2022-09-05T21:19:53.774Z,99474.44
2022-09-05T21:22:30.675Z,99463.28
2022-09-05T21:25:21.814Z,99468.44
2022-09-05T21:27:59.751Z,99466.81
2022-09-05T21:30:31.303Z,99469.53
2022-09-05T21:33:08.276Z,99461.69
2022-09-05T21:35:46.732Z,99465.53
2022-09-05T21:38:32.579Z,99459.25
2022-09-05T21:41:02.916Z,99455.50
2022-09-05T21:47:39.162Z,99462.03
2022-09-05T21:47:40.313Z,99458.47
2022-09-05T21:49:11.968Z,99464.75
2022-09-05T21:51:41.065Z,99458.22
2022-09-05T21:59:17.233Z,99453.09
2022-09-05T21:59:25.434Z,99453.91
2022-09-05T22:00:11.273Z,99450.66
2022-09-05T22:02:49.096Z,99448.47
2022-09-05T22:05:20.259Z,99446.88
2022-09-05T22:07:53.477Z,99450.38
2022-09-05T22:10:23.397Z,99446.06
2022-09-05T22:13:08.755Z,99455.00
2022-09-05T22:15:39.209Z,99450.16
2022-09-05T22:18:26.993Z,99450.16
2022-09-05T22:21:33.373Z,99448.25
2022-09-05T22:23:53.899Z,99443.66
2022-09-05T22:26:23.625Z,99445.28
2022-09-05T22:28:52.595Z,99442.56
2022-09-05T22:31:23.202Z,99441.22
2022-09-05T22:33:52.116Z,99443.13
2022-09-05T22:36:22.527Z,99440.94
2022-09-05T22:38:51.279Z,99437.16
2022-09-05T22:41:30.059Z,99437.41
2022-09-05T22:43:59.972Z,99439.06
2022-09-05T22:46:29.461Z,99440.13
2022-09-05T22:48:58.357Z,99434.94
2022-09-05T22:51:28.342Z,99431.97
2022-09-05T22:53:56.977Z,99431.41
2022-09-05T22:56:34.383Z,99422.47
2022-09-05T22:59:04.325Z,99426.28
2022-09-05T23:01:33.199Z,99421.94
2022-09-05T23:04:02.098Z,99419.78
2022-09-05T23:06:32.211Z,99411.66
2022-09-05T23:09:00.840Z,99415.44
2022-09-05T23:11:32.131Z,99412.44
2022-09-05T23:14:00.772Z,99418.13
2022-09-05T23:16:29.547Z,99412.44
2022-09-05T23:18:58.212Z,99415.16
2022-09-05T23:21:26.962Z,99409.19
2022-09-05T23:23:57.070Z,99402.16
2022-09-05T23:26:25.940Z,99392.66
2022-09-05T23:28:54.597Z,99393.75
2022-09-05T23:31:23.268Z,99391.00
2022-09-05T23:33:52.355Z,99386.44
2022-09-05T23:36:21.080Z,99385.06
2022-09-05T23:38:49.787Z,99382.34
2022-09-05T23:41:19.867Z,99381.28
2022-09-05T23:43:48.555Z,99380.75
2022-09-05T23:46:17.286Z,99379.91
2022-09-05T23:48:45.973Z,99379.63
2022-09-05T23:51:15.138Z,99375.84
2022-09-05T23:53:46.176Z,99385.59
2022-09-05T23:56:14.836Z,99385.28
2022-09-05T23:58:44.825Z,99378.53
